Time;durP1;ratioP1;P1;durP2;ratioP2;P2;SDS_P1;SDS_P2;PMS_P1;PMS_P2;Temp;Humidity;BMP_temperature;BMP_pressure;BME280_temperature;BME280_humidity;BME280_pressure;Samples;Min_cycle;Max_cycle;Signal;HPM_P1;HPM_P2
2022/06/16 00:02:02;;;;;;;1.80;1.70;;;;;;;20.89;70.69;97241.41;6204380;23;20564;-93
2022/06/16 00:04:29;;;;;;;1.80;1.60;;;;;;;18.11;70.92;96720.97;6179139;23;20198;-93
2022/06/16 00:06:56;;;;;;;1.80;1.70;;;;;;;22.00;71.11;97393.56;6206373;23;20179;-93
2022/06/16 00:09:23;;;;;;;1.73;1.50;;;;;;;21.78;71.01;97398.94;6180934;23;20207;-93
2022/06/16 00:11:49;;;;;;;1.77;1.67;;;;;;;22.45;71.10;97480.06;6184196;23;20172;-92
2022/06/16 00:14:16;;;;;;;1.70;1.60;;;;;;;19.38;71.10;96935.22;6183555;23;20176;-93
2022/06/16 00:16:43;;;;;;;1.60;1.50;;;;;;;20.87;71.13;97225.16;6176213;23;20209;-93
2022/06/16 00:19:09;;;;;;;1.60;1.50;;;;;;;21.97;71.03;97380.69;6201258;23;20200;-92
2022/06/16 00:21:36;;;;;;;1.70;1.60;;;;;;;19.71;70.78;96999.00;6177540;23;20181;-93
2022/06/16 00:24:03;;;;;;;1.53;1.43;;;;;;;21.43;70.96;97283.78;6201954;23;20196;-93
2022/06/16 00:26:30;;;;;;;1.60;1.50;;;;;;;22.22;70.70;97429.97;6177362;23;20196;-93
2022/06/16 00:28:57;;;;;;;1.67;1.57;;;;;;;21.20;70.74;97256.75;6225807;23;20196;-92
2022/06/16 00:31:27;;;;;;;1.90;1.80;;;;;;;22.21;71.01;97410.34;6178626;23;20165;-92
2022/06/16 00:33:54;;;;;;;1.57;1.47;;;;;;;21.33;70.97;97286.06;6201375;23;20173;-92
2022/06/16 00:36:20;;;;;;;1.70;1.60;;;;;;;19.59;70.83;96968.06;6176251;23;20220;-93
2022/06/16 00:38:47;;;;;;;1.50;1.40;;;;;;;22.19;71.34;97452.06;6201087;23;20239;-92
2022/06/16 00:41:14;;;;;;;1.63;1.53;;;;;;;21.87;71.23;97360.84;6199844;23;20192;-93
2022/06/16 00:43:40;;;;;;;1.90;1.80;;;;;;;20.82;71.01;97178.22;6176069;23;20197;-93
2022/06/16 00:46:15;;;;;;;1.60;1.50;;;;;;;20.91;70.96;97200.56;6223777;23;20216;-92
2022/06/16 00:48:49;;;;;;;1.90;1.80;;;;;;;22.20;70.92;97416.25;6226771;23;20169;-94
2022/06/16 00:51:18;;;;;;;1.83;1.73;;;;;;;22.45;71.13;97454.47;6178735;23;20160;-93
2022/06/16 00:53:44;;;;;;;1.90;1.80;;;;;;;20.72;71.00;97154.94;6226276;23;20235;-94
2022/06/16 00:56:14;;;;;;;1.70;1.60;;;;;;;22.22;71.12;97463.25;6201380;23;20208;-93
2022/06/16 00:58:41;;;;;;;1.67;1.57;;;;;;;22.04;70.99;97387.69;6176925;23;20177;-93
2022/06/16 01:01:08;;;;;;;1.80;1.70;;;;;;;21.44;71.02;97290.63;6198162;23;20460;-93
2022/06/16 01:06:26;;;;;;;1.60;1.50;;;;;;;21.57;70.91;97314.81;6205988;23;20223;-93
2022/06/16 01:08:59;;;;;;;1.60;1.50;;;;;;;21.18;70.87;97226.88;6201492;23;20161;-93
2022/06/16 01:15:06;;;;;;;1.67;1.57;;;;;;;22.46;71.07;97445.94;6228847;23;20204;-94
2022/06/16 01:18:00;;;;;;;1.60;1.50;;;;;;;20.54;70.66;97134.88;6177552;23;20184;-93
2022/06/16 01:20:32;;;;;;;1.50;1.40;;;;;;;21.57;70.98;97302.91;6157618;23;20383;-92
2022/06/16 01:23:10;;;;;;;1.80;1.70;;;;;;;22.44;71.04;97447.59;6178490;23;20181;-93
2022/06/16 01:25:58;;;;;;;1.80;1.70;;;;;;;22.45;71.04;97456.16;6201731;23;20205;-94
2022/06/16 01:28:28;;;;;;;1.80;1.70;;;;;;;22.44;71.15;97447.59;6203115;23;20672;-93
2022/06/16 01:31:02;;;;;;;1.77;1.67;;;;;;;19.79;71.00;96995.00;6229061;23;20177;-92
2022/06/16 01:33:32;;;;;;;1.80;1.70;;;;;;;22.45;70.70;97451.91;6177895;23;20180;-93
2022/06/16 01:36:06;;;;;;;1.70;1.60;;;;;;;22.44;71.16;97447.59;6201411;23;20203;-94
2022/06/16 01:38:36;;;;;;;1.60;1.50;;;;;;;22.44;71.12;97457.84;6177971;23;20183;-93
2022/06/16 01:41:32;;;;;;;1.73;1.63;;;;;;;21.97;70.58;97370.47;6201556;23;20173;-92
2022/06/16 01:44:07;;;;;;;1.60;1.50;;;;;;;22.23;70.80;97418.06;6165597;23;20200;-93
2022/06/16 01:46:34;;;;;;;1.60;1.50;;;;;;;21.20;70.97;97251.63;6153227;23;20196;-93
2022/06/16 01:49:21;;;;;;;1.80;1.70;;;;;;;22.12;71.02;97399.88;6177160;23;20183;-92
2022/06/16 01:51:50;;;;;;;1.70;1.60;;;;;;;21.37;70.93;97287.84;6201999;23;20165;-93
2022/06/16 01:54:30;;;;;;;1.77;1.67;;;;;;;22.25;71.15;97426.63;6176288;23;20173;-93
2022/06/16 01:57:12;;;;;;;1.77;1.67;;;;;;;21.77;71.07;97352.03;6152188;23;20172;-93
2022/06/16 01:59:41;;;;;;;1.67;1.57;;;;;;;22.45;71.04;97453.59;6152604;23;20165;-93
2022/06/16 02:02:10;;;;;;;1.80;1.53;;;;;;;19.90;70.93;97039.50;6176463;23;20161;-93
2022/06/16 02:04:41;;;;;;;2.00;1.73;;;;;;;18.54;70.60;96774.88;6177805;23;20197;-93
2022/06/16 02:07:12;;;;;;;1.77;1.67;;;;;;;18.75;70.78;96830.59;6177710;23;20177;-93
2022/06/16 02:09:41;;;;;;;2.00;1.90;;;;;;;19.25;70.72;96909.31;6154490;23;20496;-93
2022/06/16 02:12:10;;;;;;;1.83;1.73;;;;;;;20.74;71.06;97150.72;6156197;23;20177;-93
2022/06/16 02:14:42;;;;;;;1.90;1.80;;;;;;;22.44;71.34;97437.34;6154184;23;20173;-93
2022/06/16 02:17:08;;;;;;;1.70;1.60;;;;;;;21.53;71.16;97295.97;6182289;23;20468;-93
2022/06/16 02:19:35;;;;;;;1.90;1.80;;;;;;;20.17;70.79;97034.31;6181911;23;20184;-93
2022/06/16 02:22:02;;;;;;;1.60;1.50;;;;;;;16.88;70.66;96469.13;6207872;23;20176;-94
2022/06/16 02:24:30;;;;;;;1.60;1.50;;;;;;;22.43;70.79;97420.25;6207453;23;20195;-93
2022/06/16 02:26:58;;;;;;;1.70;1.60;;;;;;;17.85;70.25;96645.59;6182554;23;20207;-93
2022/06/16 02:29:29;;;;;;;1.70;1.60;;;;;;;22.45;70.97;97417.72;6184306;23;20168;-93
2022/06/16 02:32:12;;;;;;;1.60;1.50;;;;;;;22.01;70.86;97362.03;6232863;23;20190;-93
2022/06/16 02:35:09;;;;;;;1.50;1.40;;;;;;;22.45;71.11;97410.94;6208346;23;20169;-94
2022/06/16 02:38:05;;;;;;;1.87;1.77;;;;;;;22.45;71.09;97413.50;6228546;23;20180;-93
2022/06/16 02:41:07;;;;;;;1.80;1.70;;;;;;;20.81;70.99;97135.59;6254080;23;20176;-93
2022/06/16 02:43:45;;;;;;;2.10;1.73;;;;;;;21.15;71.00;97199.56;6211506;23;20191;-94
2022/06/16 02:46:25;;;;;;;1.60;1.50;;;;;;;22.45;71.09;97404.94;6183365;23;20196;-93
2022/06/16 02:49:09;;;;;;;1.70;1.60;;;;;;;18.73;70.97;96801.69;6215979;23;20176;-96
2022/06/16 02:52:31;;;;;;;1.80;1.70;;;;;;;22.44;70.96;97411.75;6217854;23;20195;-95
2022/06/16 02:55:05;;;;;;;1.70;1.60;;;;;;;22.45;71.54;97417.72;6116953;23;20250;-94
2022/06/16 02:57:42;;;;;;;1.73;1.63;;;;;;;22.21;71.13;97440.19;6211099;23;20179;-95
2022/06/16 03:00:13;;;;;;;1.83;1.73;;;;;;;17.06;71.18;96525.50;6190647;23;20249;-95
2022/06/16 03:02:40;;;;;;;1.57;1.47;;;;;;;19.93;71.06;97071.03;6191677;23;20173;-96
2022/06/16 03:05:08;;;;;;;1.80;1.70;;;;;;;17.69;70.71;96623.09;6192221;22;20196;-96
2022/06/16 03:07:35;;;;;;;1.60;1.50;;;;;;;19.97;70.84;97021.00;6193039;23;20164;-96
2022/06/16 03:10:03;;;;;;;1.70;1.60;;;;;;;20.47;70.85;97112.56;6193350;23;20251;-94
2022/06/16 03:12:29;;;;;;;1.80;1.70;;;;;;;18.82;70.64;96825.75;6190880;23;20249;-94
2022/06/16 03:14:56;;;;;;;1.63;1.53;;;;;;;19.99;70.99;97045.72;6188661;23;20222;-96
2022/06/16 03:17:23;;;;;;;1.80;1.70;;;;;;;19.24;70.80;96871.91;6214193;23;20199;-95
2022/06/16 03:19:50;;;;;;;1.53;1.43;;;;;;;16.74;70.56;96461.88;6188975;23;20176;-96
2022/06/16 03:22:18;;;;;;;1.80;1.70;;;;;;;17.74;70.63;96670.69;6166640;23;20196;-96
2022/06/16 03:24:45;;;;;;;1.70;1.60;;;;;;;19.84;70.75;96973.03;6214381;23;20205;-95
2022/06/16 03:27:13;;;;;;;1.90;1.80;;;;;;;20.35;71.02;97096.94;6190557;23;20156;-96
2022/06/16 03:29:40;;;;;;;1.77;1.67;;;;;;;17.92;70.41;96668.72;6213982;23;20208;-95
2022/06/16 03:32:07;;;;;;;1.70;1.60;;;;;;;20.64;70.73;97149.66;6187864;23;20196;-96
2022/06/16 03:34:34;;;;;;;1.80;1.70;;;;;;;16.72;70.37;96426.31;6189175;23;20208;-96
2022/06/16 03:37:01;;;;;;;1.60;1.50;;;;;;;21.37;70.71;97262.28;6215580;22;20168;-96
2022/06/16 03:39:28;;;;;;;1.80;1.70;;;;;;;20.45;70.52;97128.66;6214165;23;20157;-94
2022/06/16 03:41:55;;;;;;;1.97;1.80;;;;;;;19.55;70.68;96959.50;6188532;23;20400;-95
2022/06/16 03:44:22;;;;;;;2.00;1.90;;;;;;;17.97;70.53;96748.53;6213755;23;20165;-95
2022/06/16 03:46:49;;;;;;;1.50;1.40;;;;;;;17.40;71.02;96555.28;6213323;23;20164;-96
2022/06/16 03:49:17;;;;;;;1.77;1.67;;;;;;;19.02;70.34;96902.69;6189261;23;20180;-94
2022/06/16 03:51:44;;;;;;;1.90;1.80;;;;;;;20.22;70.86;97115.25;6188071;23;20157;-96
2022/06/16 03:54:11;;;;;;;1.70;1.60;;;;;;;18.73;70.44;96852.59;6186675;23;20177;-95
2022/06/16 03:56:38;;;;;;;1.80;1.70;;;;;;;20.20;71.60;97147.53;6209948;23;20196;-95
2022/06/16 03:59:04;;;;;;;1.67;1.57;;;;;;;16.71;70.91;96517.59;6186872;23;20181;-96
2022/06/16 04:01:31;;;;;;;2.00;1.90;;;;;;;20.99;71.05;97196.56;6186149;23;20169;-96
2022/06/16 04:04:01;;;;;;;1.80;1.70;;;;;;;18.58;71.00;96832.66;6186928;23;20410;-94
2022/06/16 04:06:29;;;;;;;1.80;1.70;;;;;;;20.19;70.99;97094.75;6186502;23;20181;-96
2022/06/16 04:08:57;;;;;;;1.67;1.57;;;;;;;18.67;71.34;96763.34;6162245;23;20173;-95
2022/06/16 04:11:26;;;;;;;1.93;1.83;;;;;;;22.44;71.47;97410.88;6184984;23;20184;-95
2022/06/16 04:14:02;;;;;;;1.63;1.53;;;;;;;20.36;71.30;97062.03;6234418;23;20169;-93
2022/06/16 04:16:32;;;;;;;1.80;1.70;;;;;;;21.58;71.48;97312.31;6205616;23;20224;-96
2022/06/16 04:19:00;;;;;;;1.60;1.50;;;;;;;16.43;70.79;96395.00;6210093;23;20176;-96
2022/06/16 04:21:27;;;;;;;1.60;1.50;;;;;;;20.88;71.39;97221.81;6187413;23;20173;-96
2022/06/16 04:23:54;;;;;;;1.90;1.80;;;;;;;16.43;70.91;96387.38;6214711;23;20189;-95
2022/06/16 04:26:21;;;;;;;1.77;1.67;;;;;;;19.24;71.18;96935.59;6214156;23;20177;-95
2022/06/16 04:28:48;;;;;;;1.80;1.70;;;;;;;16.30;70.99;96440.16;6212346;23;20161;-96
2022/06/16 04:31:15;;;;;;;1.63;1.53;;;;;;;21.25;71.41;97269.66;6187178;23;20220;-96
2022/06/16 04:33:42;;;;;;;1.90;1.80;;;;;;;16.53;71.18;96484.03;6213529;23;20141;-96
2022/06/16 04:36:09;;;;;;;1.73;1.63;;;;;;;18.00;71.30;96662.19;6214323;23;20193;-96
2022/06/16 04:38:36;;;;;;;1.70;1.40;;;;;;;20.36;71.51;97068.03;6213439;23;20157;-94
2022/06/16 04:41:02;;;;;;;1.80;1.70;;;;;;;16.17;71.02;96350.19;6187633;23;20169;-95
2022/06/16 04:43:30;;;;;;;1.87;1.77;;;;;;;16.94;71.05;96554.72;6186722;23;20165;-95
2022/06/16 04:45:58;;;;;;;1.97;1.87;;;;;;;19.60;71.41;97028.44;6188756;23;20185;-96
2022/06/16 04:48:26;;;;;;;1.70;1.60;;;;;;;16.07;71.14;96382.78;6213309;23;20177;-95
2022/06/16 04:50:53;;;;;;;1.87;1.77;;;;;;;20.70;71.66;97167.69;6212997;23;20224;-95
2022/06/16 04:53:20;;;;;;;2.13;1.87;;;;;;;21.58;71.37;97307.19;6211707;23;20180;-95
2022/06/16 04:55:58;;;;;;;1.73;1.63;;;;;;;19.27;71.24;96945.94;6185725;23;20216;-94
2022/06/16 04:58:25;;;;;;;1.60;1.50;;;;;;;21.28;71.53;97250.16;6183617;23;20179;-95
2022/06/16 05:00:53;;;;;;;1.80;1.70;;;;;;;18.70;71.30;96848.28;6186886;23;20173;-96
2022/06/16 05:03:40;;;;;;;1.80;1.70;;;;;;;21.06;71.40;97207.00;6193691;23;20192;-96
2022/06/16 05:06:07;;;;;;;1.87;1.77;;;;;;;20.39;71.41;97138.69;6209970;23;20248;-95
2022/06/16 05:08:35;;;;;;;2.00;1.90;;;;;;;21.82;71.57;97365.84;6209920;23;20180;-95
2022/06/16 05:11:01;;;;;;;1.97;1.87;;;;;;;19.71;71.29;96997.34;6208887;23;20177;-96
2022/06/16 05:13:28;;;;;;;1.63;1.53;;;;;;;20.13;71.44;97050.38;6207626;23;20173;-95
2022/06/16 05:32:10;;;;;;;1.60;1.50;;;;;;;19.66;71.37;96986.13;6252262;22;20251;-94
2022/06/16 05:34:42;;;;;;;1.80;1.70;;;;;;;20.29;71.47;97126.50;6200875;22;20157;-94
2022/06/16 05:56:18;;;;;;;1.73;1.60;;;;;;;19.80;71.51;97027.31;6269084;22;20186;-94
2022/06/16 05:58:49;;;;;;;1.80;1.70;;;;;;;21.05;71.37;97235.06;6199217;22;20184;-94
2022/06/16 06:01:19;;;;;;;1.80;1.70;;;;;;;21.15;71.26;97240.44;6199190;22;20171;-94
2022/06/16 06:03:47;;;;;;;1.80;1.70;;;;;;;20.04;71.36;97068.78;6198033;22;20169;-94
2022/06/16 06:06:15;;;;;;;1.90;1.80;;;;;;;21.03;71.52;97264.81;6197467;22;20336;-94
2022/06/16 06:17:16;;;;;;;2.17;1.97;;;;;;;21.06;71.33;97255.53;6229821;22;20152;-94
2022/06/16 06:19:46;;;;;;;1.80;1.70;;;;;;;22.49;71.61;97511.72;6200588;22;20169;-94
2022/06/16 09:16:28;;;;;;;1.90;1.80;;;;;;;20.06;71.75;97155.56;6161180;22;1698392;-94
2022/06/16 09:19:20;;;;;;;1.90;1.80;;;;;;;22.47;71.92;97572.31;6219541;23;20436;-93
2022/06/16 09:22:11;;;;;;;1.80;1.70;;;;;;;22.47;71.89;97570.59;6194751;23;20163;-94
2022/06/16 09:52:13;;;;;;;1.90;1.80;;;;;;;19.64;71.50;97097.41;6241256;22;20167;-93
2022/06/16 09:54:46;;;;;;;1.90;1.80;;;;;;;20.48;71.63;97241.03;6279494;22;20160;-93
2022/06/16 10:00:16;;;;;;;1.90;1.80;;;;;;;19.73;71.95;97099.34;6277113;22;20183;-94
2022/06/16 10:02:58;;;;;;;1.80;1.70;;;;;;;22.48;72.15;97564.66;6257231;22;20220;-94
2022/06/16 10:05:49;;;;;;;1.60;1.50;;;;;;;20.42;71.70;97230.66;6255606;22;20205;-93
2022/06/16 10:08:32;;;;;;;2.03;1.90;;;;;;;20.17;71.65;97178.06;6256511;22;20152;-94
2022/06/16 10:11:26;;;;;;;1.70;1.60;;;;;;;22.49;71.96;97571.50;6229955;22;20182;-94
2022/06/16 10:14:11;;;;;;;1.70;1.60;;;;;;;19.98;71.92;97137.50;6257067;22;20144;-94
2022/06/16 10:16:51;;;;;;;1.60;1.50;;;;;;;19.69;71.71;97108.59;6229586;22;20206;-93
2022/06/16 10:19:20;;;;;;;1.80;1.70;;;;;;;19.72;72.07;97120.56;6255210;22;20147;-94
2022/06/16 10:21:51;;;;;;;1.90;1.80;;;;;;;19.72;71.63;97110.38;6256024;22;20148;-94
2022/06/16 10:24:21;;;;;;;1.80;1.70;;;;;;;19.89;71.17;97125.34;6253229;22;20251;-93
2022/06/16 10:26:50;;;;;;;1.87;1.77;;;;;;;21.04;71.49;97336.38;6254841;22;20192;-94
2022/06/16 10:29:30;;;;;;;2.00;1.90;;;;;;;22.41;71.78;97555.06;6279050;22;20190;-94
2022/06/16 10:32:00;;;;;;;1.60;1.50;;;;;;;19.64;71.26;97088.88;6229944;22;20155;-94
2022/06/16 10:34:41;;;;;;;1.67;1.57;;;;;;;19.81;71.85;97124.25;6228509;22;20179;-93
2022/06/16 10:50:48;;;;;;;1.83;1.73;;;;;;;22.04;71.81;97498.59;6263803;22;20187;-93
2022/06/16 10:53:28;;;;;;;1.77;1.67;;;;;;;20.39;71.97;97222.91;6229427;22;20185;-94
2022/06/16 10:56:03;;;;;;;1.83;1.73;;;;;;;20.61;71.73;97255.91;6223220;22;20202;-93
2022/06/16 10:58:33;;;;;;;1.80;1.70;;;;;;;19.80;71.65;97134.41;6211986;22;21004;-92
2022/06/16 11:01:05;;;;;;;1.90;1.80;;;;;;;19.62;72.13;97101.59;6220782;22;20182;-94
2022/06/16 11:03:45;;;;;;;1.70;1.60;;;;;;;19.88;71.71;97141.47;6249887;22;20168;-95
2022/06/16 11:06:15;;;;;;;1.70;1.60;;;;;;;19.97;71.61;97143.41;6223769;22;20188;-94
2022/06/16 11:08:48;;;;;;;1.73;1.63;;;;;;;20.50;71.69;97234.31;6224372;22;20163;-94
2022/06/16 11:11:20;;;;;;;1.70;1.60;;;;;;;20.26;71.89;97198.75;6223446;22;20180;-94
2022/06/16 11:13:53;;;;;;;1.90;1.80;;;;;;;21.02;71.59;97309.91;6223943;22;20172;-95
2022/06/16 11:16:25;;;;;;;1.87;1.77;;;;;;;18.01;71.66;96819.00;6218030;23;20264;-93
2022/06/16 11:18:54;;;;;;;2.00;1.90;;;;;;;15.18;71.35;96374.63;6212721;23;20173;-94
2022/06/16 11:21:24;;;;;;;1.70;1.60;;;;;;;22.49;71.80;97563.81;6187395;23;20192;-96
2022/06/16 11:23:53;;;;;;;1.70;1.60;;;;;;;19.02;71.59;96996.91;6188793;23;20184;-93
2022/06/16 11:26:28;;;;;;;1.70;1.60;;;;;;;18.45;71.49;96866.19;6162999;23;20196;-93
2022/06/16 11:29:27;;;;;;;1.80;1.70;;;;;;;21.82;71.99;97439.16;6166166;23;20153;-94
2022/06/16 11:32:14;;;;;;;1.90;1.80;;;;;;;22.49;71.90;97555.25;6188818;23;20173;-93
2022/06/16 11:34:41;;;;;;;1.80;1.70;;;;;;;17.98;71.73;96835.81;6214331;23;20183;-93
2022/06/16 11:37:08;;;;;;;1.70;1.60;;;;;;;22.49;71.94;97551.03;6188035;23;20193;-93
2022/06/16 11:40:15;;;;;;;1.80;1.70;;;;;;;22.50;71.97;97544.22;6214202;23;20157;-92
2022/06/16 11:43:37;;;;;;;2.00;1.90;;;;;;;22.49;71.85;97539.91;6238284;23;20200;-94
2022/06/16 11:46:13;;;;;;;1.70;1.60;;;;;;;20.09;71.75;97158.22;6117887;23;20214;-94
2022/06/16 11:48:58;;;;;;;1.87;1.77;;;;;;;22.49;72.00;97542.47;6174406;23;20177;-95
2022/06/16 11:51:54;;;;;;;1.93;1.83;;;;;;;19.67;71.63;97158.69;6238863;23;20223;-94
2022/06/16 11:54:27;;;;;;;1.87;1.77;;;;;;;22.50;71.74;97536.53;6213324;23;20158;-94
2022/06/16 11:57:29;;;;;;;1.70;1.60;;;;;;;14.98;71.69;96266.81;6212435;23;20224;-96
2022/06/16 12:00:11;;;;;;;1.97;1.87;;;;;;;22.49;71.83;97535.66;6216042;23;20157;-95
2022/06/16 12:03:09;;;;;;;1.90;1.80;;;;;;;19.80;71.92;97131.84;6187346;23;20204;-94
2022/06/16 12:05:45;;;;;;;2.00;1.80;;;;;;;22.50;71.91;97541.66;6165245;23;20197;-93
2022/06/16 12:08:18;;;;;;;1.87;1.77;;;;;;;22.49;71.95;97535.66;6188633;23;20199;-93
2022/06/16 12:10:49;;;;;;;1.77;1.67;;;;;;;22.49;71.99;97538.22;6240213;23;20169;-94
2022/06/16 12:13:58;;;;;;;1.93;1.83;;;;;;;14.40;71.22;96200.72;6215023;23;20152;-94
2022/06/16 12:16:33;;;;;;;1.80;1.70;;;;;;;22.49;71.98;97530.53;6065585;23;20203;-93
2022/06/16 12:19:42;;;;;;;1.83;1.73;;;;;;;22.50;71.99;97528.84;6088253;23;20168;-92
2022/06/16 12:22:12;;;;;;;2.00;1.90;;;;;;;16.43;71.70;96509.09;6198642;23;20157;-93
2022/06/16 12:24:45;;;;;;;2.00;1.90;;;;;;;20.83;72.03;97273.56;6187309;23;20196;-93
2022/06/16 12:27:13;;;;;;;1.87;1.77;;;;;;;21.19;72.19;97359.81;6212653;23;20196;-92
2022/06/16 12:29:40;;;;;;;1.97;1.87;;;;;;;22.49;71.56;97522.84;6188640;23;20173;-93
2022/06/16 12:32:26;;;;;;;1.67;1.57;;;;;;;22.50;72.00;97531.41;6213844;23;20157;-94
2022/06/16 12:35:25;;;;;;;1.80;1.70;;;;;;;22.49;72.08;97525.41;6212466;23;20510;-93
2022/06/16 12:38:03;;;;;;;1.80;1.70;;;;;;;16.94;71.90;96598.72;6212305;23;20161;-94
2022/06/16 12:40:39;;;;;;;1.90;1.80;;;;;;;17.88;71.57;96790.56;6166043;23;20199;-95
2022/06/16 12:43:12;;;;;;;1.90;1.80;;;;;;;20.12;72.15;97216.97;6165855;23;20207;-93
2022/06/16 12:45:43;;;;;;;1.80;1.70;;;;;;;22.51;71.84;97528.03;6189078;23;20196;-94
2022/06/16 12:48:12;;;;;;;1.87;1.77;;;;;;;22.29;71.97;97580.34;6165251;23;20177;-93
2022/06/16 12:50:47;;;;;;;1.73;1.63;;;;;;;20.38;71.71;97257.81;6165119;23;20172;-94
2022/06/16 12:53:17;;;;;;;1.90;1.80;;;;;;;22.50;72.01;97529.72;6166369;23;20157;-94
2022/06/16 12:56:08;;;;;;;1.87;1.77;;;;;;;17.70;71.60;96737.50;6239775;23;20188;-92
2022/06/16 12:58:45;;;;;;;2.03;1.93;;;;;;;17.94;71.71;96755.19;6166916;23;20165;-93
2022/06/16 13:01:12;;;;;;;1.80;1.70;;;;;;;16.02;71.65;96447.66;6164909;23;20180;-93
2022/06/16 13:03:45;;;;;;;1.90;1.80;;;;;;;19.84;72.21;97087.78;6188943;23;20184;-95
2022/06/16 13:06:12;;;;;;;1.77;1.67;;;;;;;19.16;71.84;97019.41;6165274;23;20196;-92
2022/06/16 13:08:43;;;;;;;1.60;1.50;;;;;;;18.03;72.18;96797.00;6190192;23;20203;-92
2022/06/16 13:11:14;;;;;;;1.80;1.70;;;;;;;22.39;72.22;97513.22;6191985;23;20176;-93
2022/06/16 13:13:46;;;;;;;2.07;1.90;;;;;;;20.06;71.87;97123.28;6166854;23;20161;-95
2022/06/16 13:16:18;;;;;;;1.90;1.80;;;;;;;16.56;71.99;96562.75;6165722;23;20280;-93
2022/06/16 13:18:50;;;;;;;2.00;1.90;;;;;;;16.24;71.57;96439.94;6166051;23;20216;-92
2022/06/16 13:21:26;;;;;;;1.80;1.70;;;;;;;17.79;71.65;96767.41;6190281;23;20146;-92
2022/06/16 13:24:17;;;;;;;1.97;1.87;;;;;;;19.16;71.15;96963.38;6190290;23;20161;-94
2022/06/16 13:27:07;;;;;;;1.90;1.80;;;;;;;19.60;71.46;97123.59;6168566;23;20196;-93
2022/06/16 13:30:11;;;;;;;1.97;1.87;;;;;;;17.57;71.71;96676.09;6168977;23;20169;-94
2022/06/16 13:32:59;;;;;;;1.93;1.83;;;;;;;16.80;71.70;96559.34;6182943;23;20199;-94
2022/06/16 13:35:32;;;;;;;2.20;2.00;;;;;;;17.07;71.24;96661.75;6167377;23;20165;-93
2022/06/16 13:38:02;;;;;;;1.80;1.70;;;;;;;22.50;72.05;97519.47;6162649;23;20200;-94
2022/06/16 13:40:30;;;;;;;1.87;1.77;;;;;;;17.98;71.86;96779.91;6212120;23;20200;-93
2022/06/16 13:42:56;;;;;;;2.00;1.90;;;;;;;22.50;71.98;97522.03;6187298;23;20173;-95
2022/06/16 13:45:29;;;;;;;2.00;1.90;;;;;;;22.50;72.13;97524.59;6210270;23;20188;-94
2022/06/16 13:48:14;;;;;;;2.00;1.90;;;;;;;22.50;72.15;97523.72;6210948;23;20201;-93
2022/06/16 13:50:45;;;;;;;3.13;1.87;;;;;;;22.49;72.15;97522.84;6210391;23;20161;-91
2022/06/16 13:53:14;;;;;;;1.90;1.80;;;;;;;16.29;71.77;96550.81;6186052;23;20196;-93
2022/06/16 13:55:53;;;;;;;1.80;1.70;;;;;;;22.50;72.17;97516.91;6184799;23;20200;-94
2022/06/16 13:58:21;;;;;;;2.10;2.00;;;;;;;14.38;71.68;96148.38;6235283;23;20173;-94
2022/06/16 14:01:05;;;;;;;2.03;1.93;;;;;;;15.02;71.59;96298.13;6185161;23;20173;-92
2022/06/16 14:03:33;;;;;;;1.97;1.87;;;;;;;19.27;71.92;97015.56;6186906;23;20177;-93
2022/06/16 14:06:07;;;;;;;1.90;1.80;;;;;;;16.22;71.19;96492.25;6162258;23;20227;-92
2022/06/16 14:08:35;;;;;;;2.10;2.00;;;;;;;18.53;71.69;96896.97;6188219;23;20173;-92
2022/06/16 14:11:34;;;;;;;1.90;1.80;;;;;;;16.59;71.54;96500.31;6162627;23;20177;-94
2022/06/16 14:14:10;;;;;;;1.90;1.80;;;;;;;22.52;71.98;97532.31;6124826;23;20173;-94
2022/06/16 14:16:45;;;;;;;1.90;1.80;;;;;;;16.65;71.74;96527.53;6212868;23;20223;-93
2022/06/16 14:19:32;;;;;;;1.90;1.80;;;;;;;22.51;72.05;97541.72;6187164;23;20215;-93
2022/06/16 14:22:18;;;;;;;2.10;2.00;;;;;;;17.50;71.88;96702.97;6188756;23;20173;-92
2022/06/16 14:24:58;;;;;;;1.80;1.70;;;;;;;22.51;71.97;97543.41;6162464;23;20192;-93
2022/06/16 14:27:30;;;;;;;1.77;1.67;;;;;;;22.50;72.08;97544.22;6211537;23;20185;-94
2022/06/16 14:29:57;;;;;;;1.83;1.73;;;;;;;18.39;71.95;96860.91;6188191;23;20169;-93
2022/06/16 14:32:27;;;;;;;2.00;1.90;;;;;;;16.24;71.25;96528.66;6164168;23;20214;-94
2022/06/16 14:35:11;;;;;;;2.10;2.00;;;;;;;18.13;71.76;96859.19;6189314;23;20161;-95
2022/06/16 14:37:45;;;;;;;2.10;2.00;;;;;;;18.11;72.10;96830.28;6188086;23;20157;-93
2022/06/16 14:40:35;;;;;;;1.90;1.80;;;;;;;18.94;71.96;96995.78;6187697;23;20212;-94
2022/06/16 14:43:07;;;;;;;1.90;1.80;;;;;;;20.29;72.19;97237.13;6167352;23;20184;-93
2022/06/16 14:45:59;;;;;;;1.70;1.60;;;;;;;18.10;71.87;96831.13;6162854;23;20208;-94
2022/06/16 14:48:31;;;;;;;1.83;1.73;;;;;;;20.18;71.92;97167.03;6166954;23;20244;-93
2022/06/16 14:51:01;;;;;;;2.00;1.90;;;;;;;16.01;71.86;96448.47;6164607;23;20196;-94
2022/06/16 14:53:32;;;;;;;2.50;1.70;;;;;;;21.57;72.15;97410.31;6187954;23;20173;-95
2022/06/16 14:56:10;;;;;;;1.93;1.83;;;;;;;18.93;71.77;96959.31;6162502;23;20189;-94
2022/06/16 14:58:48;;;;;;;1.90;1.80;;;;;;;18.42;71.67;96974.63;6162206;23;20173;-95
2022/06/16 15:01:16;;;;;;;1.83;1.73;;;;;;;16.64;71.38;96584.16;6187283;23;20235;-93
2022/06/16 15:03:45;;;;;;;1.80;1.70;;;;;;;20.04;71.82;97168.28;6162188;23;20176;-94
2022/06/16 15:06:12;;;;;;;1.93;1.83;;;;;;;20.43;71.88;97311.53;6187390;23;20216;-94
2022/06/16 15:08:42;;;;;;;1.90;1.80;;;;;;;20.59;72.70;97288.19;6162088;23;20176;-94
2022/06/16 15:11:11;;;;;;;2.10;2.00;;;;;;;22.52;72.11;97597.22;6213929;23;20196;-96
2022/06/16 15:13:40;;;;;;;2.00;1.90;;;;;;;14.55;71.81;96266.97;6160211;23;20200;-93
2022/06/16 15:18:10;;;;;;;2.07;1.93;;;;;;;19.06;72.06;97075.13;6212063;23;20224;-93
2022/06/16 15:18:56;;;;;;;1.90;1.80;;;;;;;18.16;71.88;96833.88;6218058;23;20183;-94
2022/06/16 15:21:26;;;;;;;2.10;2.00;;;;;;;16.16;71.73;96514.88;6166670;23;20181;-94
2022/06/16 15:23:57;;;;;;;1.80;1.70;;;;;;;17.28;72.14;96698.00;6165781;23;20188;-93
2022/06/16 15:26:33;;;;;;;1.83;1.73;;;;;;;15.94;71.99;96551.28;6163216;23;20193;-94
2022/06/16 15:29:16;;;;;;;1.70;1.60;;;;;;;15.28;71.63;96338.69;6239219;23;20165;-95
2022/06/16 15:31:53;;;;;;;2.00;1.90;;;;;;;19.28;71.83;97036.81;6189488;23;20164;-95
2022/06/16 15:37:08;;;;;;;1.70;1.60;;;;;;;20.81;71.60;97367.19;6197244;23;20196;-94
2022/06/16 15:39:38;;;;;;;1.90;1.80;;;;;;;16.07;72.08;96492.63;6189658;23;20183;-95
2022/06/16 15:42:06;;;;;;;1.87;1.77;;;;;;;18.09;71.61;96835.34;6164275;23;20200;-94
2022/06/16 15:45:05;;;;;;;2.00;1.90;;;;;;;15.46;71.45;96386.63;6162962;23;20224;-94
2022/06/16 15:47:38;;;;;;;1.80;1.70;;;;;;;18.65;71.89;96928.72;6191013;23;20173;-94
2022/06/16 15:50:07;;;;;;;2.10;2.00;;;;;;;22.52;72.00;97598.91;6187753;23;20203;-94
2022/06/16 15:52:47;;;;;;;1.80;1.70;;;;;;;18.50;71.97;96896.88;6188791;23;20196;-92
2022/06/16 15:55:16;;;;;;;2.00;1.90;;;;;;;20.44;72.11;97283.50;6214754;23;20149;-94
2022/06/16 15:57:43;;;;;;;2.07;1.97;;;;;;;17.94;71.99;96803.47;6187494;23;20183;-95
2022/06/16 16:00:23;;;;;;;1.77;1.67;;;;;;;17.83;72.33;96881.91;6187134;23;20200;-93
2022/06/16 16:02:49;;;;;;;2.10;1.90;;;;;;;17.13;71.72;96658.53;6189315;23;20153;-95
2022/06/16 16:05:20;;;;;;;1.90;1.80;;;;;;;16.23;71.65;96565.81;6188216;23;20172;-96
2022/06/16 16:07:46;;;;;;;2.00;1.90;;;;;;;20.66;71.81;97273.09;6188101;23;20176;-96
2022/06/16 16:10:20;;;;;;;2.10;1.90;;;;;;;17.25;71.95;96685.19;6164754;23;20200;-95
2022/06/16 16:13:03;;;;;;;2.10;2.00;;;;;;;21.52;72.33;97434.88;6163642;23;20173;-94
2022/06/16 16:15:37;;;;;;;1.90;1.80;;;;;;;14.44;71.57;96207.59;6189437;23;20199;-95
2022/06/16 16:18:25;;;;;;;2.13;2.03;;;;;;;16.51;71.70;96626.00;6161824;23;20157;-94
2022/06/16 16:20:57;;;;;;;2.00;1.90;;;;;;;22.51;71.94;97605.75;6215489;23;20181;-96
2022/06/16 16:23:31;;;;;;;2.07;1.97;;;;;;;18.69;71.86;96937.31;6163077;23;20149;-95
2022/06/16 16:26:12;;;;;;;1.90;1.80;;;;;;;19.34;72.07;97093.06;6186339;23;20193;-94
2022/06/16 16:28:51;;;;;;;2.00;1.90;;;;;;;22.52;72.08;97604.91;6188367;23;20184;-94
2022/06/16 16:31:19;;;;;;;1.97;1.87;;;;;;;18.09;71.67;96931.13;6210975;23;20176;-94
2022/06/16 16:33:47;;;;;;;1.87;1.77;;;;;;;17.28;71.83;96796.13;6185323;23;20179;-94
2022/06/16 16:36:20;;;;;;;2.00;1.90;;;;;;;22.52;72.16;97612.59;6159981;23;20189;-94
2022/06/16 16:39:24;;;;;;;2.00;1.90;;;;;;;15.69;71.63;96502.25;6211640;23;20161;-94